sensor_id;sensor_type;location;lat;lon;timestamp;P1;durP1;ratioP1;P2;durP2;ratioP2
12635;SDS011;6383;50.830;7.210;2022-08-01T00:00:12;1.63;;;1.20;;
12635;SDS011;6383;50.830;7.210;2022-08-01T00:02:42;1.63;;;1.20;;
12635;SDS011;6383;50.830;7.210;2022-08-01T00:05:11;2.30;;;1.10;;
12635;SDS011;6383;50.830;7.210;2022-08-01T00:07:40;1.63;;;1.10;;
12635;SDS011;6383;50.830;7.210;2022-08-01T00:10:11;1.35;;;1.20;;
12635;SDS011;6383;50.830;7.210;2022-08-01T00:12:43;3.13;;;1.00;;
12635;SDS011;6383;50.830;7.210;2022-08-01T00:15:14;2.75;;;1.15;;
12635;SDS011;6383;50.830;7.210;2022-08-01T00:17:44;2.80;;;1.08;;
12635;SDS011;6383;50.830;7.210;2022-08-01T00:20:14;2.17;;;1.00;;
12635;SDS011;6383;50.830;7.210;2022-08-01T00:22:43;4.60;;;1.50;;
12635;SDS011;6383;50.830;7.210;2022-08-01T00:25:12;3.22;;;1.08;;
12635;SDS011;6383;50.830;7.210;2022-08-01T00:27:42;3.20;;;1.00;;
12635;SDS011;6383;50.830;7.210;2022-08-01T00:30:12;2.47;;;1.17;;
12635;SDS011;6383;50.830;7.210;2022-08-01T00:32:42;1.45;;;1.13;;
12635;SDS011;6383;50.830;7.210;2022-08-01T00:35:11;4.38;;;1.15;;
12635;SDS011;6383;50.830;7.210;2022-08-01T00:37:41;1.02;;;0.93;;
12635;SDS011;6383;50.830;7.210;2022-08-01T00:40:13;4.65;;;1.30;;
12635;SDS011;6383;50.830;7.210;2022-08-01T00:42:44;1.65;;;1.40;;
12635;SDS011;6383;50.830;7.210;2022-08-01T00:45:13;1.17;;;0.90;;
12635;SDS011;6383;50.830;7.210;2022-08-01T00:47:42;1.92;;;1.27;;
12635;SDS011;6383;50.830;7.210;2022-08-01T00:50:11;1.00;;;1.00;;
12635;SDS011;6383;50.830;7.210;2022-08-01T00:52:41;2.28;;;1.20;;
12635;SDS011;6383;50.830;7.210;2022-08-01T00:55:12;3.05;;;1.50;;
12635;SDS011;6383;50.830;7.210;2022-08-01T00:57:41;1.58;;;0.90;;
12635;SDS011;6383;50.830;7.210;2022-08-01T01:00:12;2.67;;;1.30;;
12635;SDS011;6383;50.830;7.210;2022-08-01T01:02:42;2.55;;;1.25;;
12635;SDS011;6383;50.830;7.210;2022-08-01T01:05:12;1.80;;;1.30;;
12635;SDS011;6383;50.830;7.210;2022-08-01T01:07:46;4.25;;;1.50;;
12635;SDS011;6383;50.830;7.210;2022-08-01T01:10:22;2.33;;;1.45;;
12635;SDS011;6383;50.830;7.210;2022-08-01T01:13:13;4.00;;;1.40;;
12635;SDS011;6383;50.830;7.210;2022-08-01T01:15:55;1.77;;;1.38;;
12635;SDS011;6383;50.830;7.210;2022-08-01T01:18:30;4.65;;;1.23;;
12635;SDS011;6383;50.830;7.210;2022-08-01T01:21:26;5.30;;;1.60;;
12635;SDS011;6383;50.830;7.210;2022-08-01T01:24:11;2.47;;;1.25;;
12635;SDS011;6383;50.830;7.210;2022-08-01T01:26:52;2.88;;;1.77;;
12635;SDS011;6383;50.830;7.210;2022-08-01T01:29:28;3.25;;;1.63;;
12635;SDS011;6383;50.830;7.210;2022-08-01T01:32:13;8.82;;;1.73;;
12635;SDS011;6383;50.830;7.210;2022-08-01T01:34:49;2.63;;;1.52;;
12635;SDS011;6383;50.830;7.210;2022-08-01T01:37:33;3.35;;;1.30;;
12635;SDS011;6383;50.830;7.210;2022-08-01T01:40:17;2.45;;;1.20;;
12635;SDS011;6383;50.830;7.210;2022-08-01T01:42:58;4.05;;;1.60;;
12635;SDS011;6383;50.830;7.210;2022-08-01T01:45:41;2.03;;;1.80;;
12635;SDS011;6383;50.830;7.210;2022-08-01T01:48:17;2.15;;;1.60;;
12635;SDS011;6383;50.830;7.210;2022-08-01T01:50:54;3.03;;;2.13;;
12635;SDS011;6383;50.830;7.210;2022-08-01T01:53:25;3.50;;;1.80;;
12635;SDS011;6383;50.830;7.210;2022-08-01T01:55:57;1.75;;;1.65;;
12635;SDS011;6383;50.830;7.210;2022-08-01T01:58:30;2.38;;;2.10;;
12635;SDS011;6383;50.830;7.210;2022-08-01T02:01:04;3.65;;;1.92;;
12635;SDS011;6383;50.830;7.210;2022-08-01T02:03:46;6.15;;;2.10;;
12635;SDS011;6383;50.830;7.210;2022-08-01T02:06:21;3.55;;;2.35;;
12635;SDS011;6383;50.830;7.210;2022-08-01T02:08:52;10.50;;;2.65;;
12635;SDS011;6383;50.830;7.210;2022-08-01T02:11:23;2.95;;;2.22;;
12635;SDS011;6383;50.830;7.210;2022-08-01T02:13:53;5.20;;;2.67;;
12635;SDS011;6383;50.830;7.210;2022-08-01T02:16:28;5.97;;;2.55;;
12635;SDS011;6383;50.830;7.210;2022-08-01T02:19:02;3.10;;;2.40;;
12635;SDS011;6383;50.830;7.210;2022-08-01T02:21:32;3.35;;;2.47;;
12635;SDS011;6383;50.830;7.210;2022-08-01T02:24:08;4.80;;;2.83;;
12635;SDS011;6383;50.830;7.210;2022-08-01T02:26:46;5.65;;;2.38;;
12635;SDS011;6383;50.830;7.210;2022-08-01T02:29:19;6.65;;;3.00;;
12635;SDS011;6383;50.830;7.210;2022-08-01T02:34:23;8.00;;;2.70;;
12635;SDS011;6383;50.830;7.210;2022-08-01T02:36:59;3.67;;;2.35;;
12635;SDS011;6383;50.830;7.210;2022-08-01T02:39:32;6.47;;;2.95;;
12635;SDS011;6383;50.830;7.210;2022-08-01T02:42:04;7.30;;;2.40;;
12635;SDS011;6383;50.830;7.210;2022-08-01T02:44:37;4.05;;;2.58;;
12635;SDS011;6383;50.830;7.210;2022-08-01T02:47:11;4.35;;;2.90;;
12635;SDS011;6383;50.830;7.210;2022-08-01T02:49:43;2.47;;;2.17;;
12635;SDS011;6383;50.830;7.210;2022-08-01T02:52:14;4.15;;;2.85;;
12635;SDS011;6383;50.830;7.210;2022-08-01T02:54:45;4.20;;;2.50;;
12635;SDS011;6383;50.830;7.210;2022-08-01T02:57:17;5.97;;;2.45;;
12635;SDS011;6383;50.830;7.210;2022-08-01T02:59:49;3.55;;;2.40;;
12635;SDS011;6383;50.830;7.210;2022-08-01T03:02:21;2.55;;;2.10;;
12635;SDS011;6383;50.830;7.210;2022-08-01T03:04:52;3.75;;;2.53;;
12635;SDS011;6383;50.830;7.210;2022-08-01T03:07:23;2.25;;;2.05;;
12635;SDS011;6383;50.830;7.210;2022-08-01T03:09:53;3.63;;;2.50;;
12635;SDS011;6383;50.830;7.210;2022-08-01T03:12:24;3.20;;;2.55;;
12635;SDS011;6383;50.830;7.210;2022-08-01T03:14:56;4.93;;;3.15;;
12635;SDS011;6383;50.830;7.210;2022-08-01T03:17:29;5.95;;;3.03;;
12635;SDS011;6383;50.830;7.210;2022-08-01T03:20:00;4.03;;;2.95;;
12635;SDS011;6383;50.830;7.210;2022-08-01T03:22:32;8.25;;;3.50;;
12635;SDS011;6383;50.830;7.210;2022-08-01T03:25:02;9.43;;;3.95;;
12635;SDS011;6383;50.830;7.210;2022-08-01T03:27:32;4.50;;;2.70;;
12635;SDS011;6383;50.830;7.210;2022-08-01T03:30:02;7.57;;;3.60;;
12635;SDS011;6383;50.830;7.210;2022-08-01T03:32:33;4.82;;;3.25;;
12635;SDS011;6383;50.830;7.210;2022-08-01T03:35:02;5.25;;;3.08;;
12635;SDS011;6383;50.830;7.210;2022-08-01T03:37:34;4.90;;;2.92;;
12635;SDS011;6383;50.830;7.210;2022-08-01T03:40:13;7.25;;;3.65;;
12635;SDS011;6383;50.830;7.210;2022-08-01T03:42:50;5.38;;;3.42;;
12635;SDS011;6383;50.830;7.210;2022-08-01T03:45:25;4.55;;;3.42;;
12635;SDS011;6383;50.830;7.210;2022-08-01T03:48:02;5.78;;;3.80;;
12635;SDS011;6383;50.830;7.210;2022-08-01T03:50:38;6.38;;;4.05;;
12635;SDS011;6383;50.830;7.210;2022-08-01T03:53:15;7.68;;;4.07;;
12635;SDS011;6383;50.830;7.210;2022-08-01T03:55:49;4.43;;;4.03;;
12635;SDS011;6383;50.830;7.210;2022-08-01T03:58:22;5.75;;;3.80;;
12635;SDS011;6383;50.830;7.210;2022-08-01T04:00:52;5.60;;;3.70;;
12635;SDS011;6383;50.830;7.210;2022-08-01T04:03:23;8.75;;;4.05;;
12635;SDS011;6383;50.830;7.210;2022-08-01T04:05:54;6.10;;;3.67;;
12635;SDS011;6383;50.830;7.210;2022-08-01T04:08:33;6.68;;;3.70;;
12635;SDS011;6383;50.830;7.210;2022-08-01T04:11:02;7.50;;;4.57;;
12635;SDS011;6383;50.830;7.210;2022-08-01T04:13:32;7.22;;;4.85;;
12635;SDS011;6383;50.830;7.210;2022-08-01T04:16:02;4.80;;;4.25;;
12635;SDS011;6383;50.830;7.210;2022-08-01T04:18:33;5.18;;;4.45;;
12635;SDS011;6383;50.830;7.210;2022-08-01T04:21:02;5.32;;;4.13;;
12635;SDS011;6383;50.830;7.210;2022-08-01T04:23:31;6.38;;;4.85;;
12635;SDS011;6383;50.830;7.210;2022-08-01T04:26:02;6.35;;;4.40;;
12635;SDS011;6383;50.830;7.210;2022-08-01T04:28:34;5.18;;;4.57;;
12635;SDS011;6383;50.830;7.210;2022-08-01T04:31:05;6.57;;;4.60;;
12635;SDS011;6383;50.830;7.210;2022-08-01T04:33:40;5.43;;;4.07;;
12635;SDS011;6383;50.830;7.210;2022-08-01T04:36:13;7.60;;;4.35;;
12635;SDS011;6383;50.830;7.210;2022-08-01T04:38:48;9.50;;;5.13;;
12635;SDS011;6383;50.830;7.210;2022-08-01T04:41:19;5.95;;;4.82;;
12635;SDS011;6383;50.830;7.210;2022-08-01T04:43:51;5.45;;;3.85;;
12635;SDS011;6383;50.830;7.210;2022-08-01T04:46:22;8.85;;;4.65;;
12635;SDS011;6383;50.830;7.210;2022-08-01T04:48:52;7.97;;;4.28;;
12635;SDS011;6383;50.830;7.210;2022-08-01T04:51:23;6.35;;;4.47;;
12635;SDS011;6383;50.830;7.210;2022-08-01T04:53:52;6.13;;;4.30;;
12635;SDS011;6383;50.830;7.210;2022-08-01T04:56:22;7.90;;;5.30;;
12635;SDS011;6383;50.830;7.210;2022-08-01T04:58:51;9.85;;;5.18;;
12635;SDS011;6383;50.830;7.210;2022-08-01T05:01:40;6.55;;;4.32;;
12635;SDS011;6383;50.830;7.210;2022-08-01T05:04:10;8.18;;;5.38;;
12635;SDS011;6383;50.830;7.210;2022-08-01T05:06:42;11.13;;;4.82;;
12635;SDS011;6383;50.830;7.210;2022-08-01T05:09:12;7.20;;;4.32;;
12635;SDS011;6383;50.830;7.210;2022-08-01T05:11:41;7.88;;;4.93;;
12635;SDS011;6383;50.830;7.210;2022-08-01T05:14:10;7.25;;;4.55;;
12635;SDS011;6383;50.830;7.210;2022-08-01T05:16:40;9.20;;;4.80;;
12635;SDS011;6383;50.830;7.210;2022-08-01T05:19:10;9.07;;;4.75;;
12635;SDS011;6383;50.830;7.210;2022-08-01T05:21:40;7.25;;;5.13;;
12635;SDS011;6383;50.830;7.210;2022-08-01T05:24:09;6.05;;;4.53;;
12635;SDS011;6383;50.830;7.210;2022-08-01T05:26:38;6.38;;;4.60;;
12635;SDS011;6383;50.830;7.210;2022-08-01T05:29:08;7.07;;;4.55;;
12635;SDS011;6383;50.830;7.210;2022-08-01T05:31:37;8.43;;;5.47;;
12635;SDS011;6383;50.830;7.210;2022-08-01T05:34:06;8.45;;;5.22;;
12635;SDS011;6383;50.830;7.210;2022-08-01T05:36:36;8.20;;;5.45;;
12635;SDS011;6383;50.830;7.210;2022-08-01T05:39:04;9.57;;;5.95;;
12635;SDS011;6383;50.830;7.210;2022-08-01T05:41:35;8.10;;;7.25;;
12635;SDS011;6383;50.830;7.210;2022-08-01T05:44:04;8.15;;;6.43;;
12635;SDS011;6383;50.830;7.210;2022-08-01T05:46:33;6.65;;;5.72;;
12635;SDS011;6383;50.830;7.210;2022-08-01T05:49:03;6.75;;;6.13;;
12635;SDS011;6383;50.830;7.210;2022-08-01T05:51:32;9.13;;;6.57;;
12635;SDS011;6383;50.830;7.210;2022-08-01T05:54:03;11.70;;;7.38;;
12635;SDS011;6383;50.830;7.210;2022-08-01T05:56:32;7.03;;;6.22;;
12635;SDS011;6383;50.830;7.210;2022-08-01T05:59:02;8.18;;;5.85;;
12635;SDS011;6383;50.830;7.210;2022-08-01T06:01:31;8.65;;;7.57;;
12635;SDS011;6383;50.830;7.210;2022-08-01T06:04:00;7.75;;;6.43;;
12635;SDS011;6383;50.830;7.210;2022-08-01T06:06:30;9.70;;;6.45;;
12635;SDS011;6383;50.830;7.210;2022-08-01T06:08:59;7.40;;;6.68;;
12635;SDS011;6383;50.830;7.210;2022-08-01T06:11:30;10.65;;;6.85;;
12635;SDS011;6383;50.830;7.210;2022-08-01T06:13:59;7.88;;;6.97;;
12635;SDS011;6383;50.830;7.210;2022-08-01T06:16:29;8.25;;;6.18;;
12635;SDS011;6383;50.830;7.210;2022-08-01T06:19:00;12.35;;;7.82;;
12635;SDS011;6383;50.830;7.210;2022-08-01T06:21:29;8.68;;;7.78;;
12635;SDS011;6383;50.830;7.210;2022-08-01T06:23:59;13.30;;;8.23;;
12635;SDS011;6383;50.830;7.210;2022-08-01T06:26:29;11.32;;;6.57;;
12635;SDS011;6383;50.830;7.210;2022-08-01T06:28:59;8.90;;;6.90;;
12635;SDS011;6383;50.830;7.210;2022-08-01T06:31:28;10.48;;;7.30;;
12635;SDS011;6383;50.830;7.210;2022-08-01T06:33:58;9.15;;;7.90;;
12635;SDS011;6383;50.830;7.210;2022-08-01T06:36:30;10.73;;;7.63;;
12635;SDS011;6383;50.830;7.210;2022-08-01T06:39:00;10.25;;;8.38;;
12635;SDS011;6383;50.830;7.210;2022-08-01T06:41:30;10.23;;;7.88;;
12635;SDS011;6383;50.830;7.210;2022-08-01T06:44:00;11.80;;;7.82;;
12635;SDS011;6383;50.830;7.210;2022-08-01T06:46:31;11.15;;;8.98;;
12635;SDS011;6383;50.830;7.210;2022-08-01T06:49:00;9.00;;;8.05;;
12635;SDS011;6383;50.830;7.210;2022-08-01T06:51:29;12.68;;;8.35;;
12635;SDS011;6383;50.830;7.210;2022-08-01T06:53:59;9.15;;;8.35;;
12635;SDS011;6383;50.830;7.210;2022-08-01T06:56:28;11.52;;;8.75;;
12635;SDS011;6383;50.830;7.210;2022-08-01T06:58:59;10.07;;;9.13;;
12635;SDS011;6383;50.830;7.210;2022-08-01T07:01:29;10.93;;;9.05;;
12635;SDS011;6383;50.830;7.210;2022-08-01T07:03:58;9.50;;;8.52;;
12635;SDS011;6383;50.830;7.210;2022-08-01T07:06:28;11.88;;;7.72;;
12635;SDS011;6383;50.830;7.210;2022-08-01T07:08:57;8.27;;;7.28;;
12635;SDS011;6383;50.830;7.210;2022-08-01T07:11:28;8.73;;;7.70;;
12635;SDS011;6383;50.830;7.210;2022-08-01T07:13:59;7.72;;;6.97;;
12635;SDS011;6383;50.830;7.210;2022-08-01T07:16:28;8.13;;;6.72;;
12635;SDS011;6383;50.830;7.210;2022-08-01T07:18:57;7.80;;;6.97;;
12635;SDS011;6383;50.830;7.210;2022-08-01T07:21:28;8.07;;;7.28;;
12635;SDS011;6383;50.830;7.210;2022-08-01T07:23:57;12.73;;;7.70;;
12635;SDS011;6383;50.830;7.210;2022-08-01T07:26:30;9.82;;;7.68;;
12635;SDS011;6383;50.830;7.210;2022-08-01T07:29:09;9.98;;;6.30;;
12635;SDS011;6383;50.830;7.210;2022-08-01T07:31:50;7.13;;;6.38;;
12635;SDS011;6383;50.830;7.210;2022-08-01T07:34:30;9.43;;;7.20;;
12635;SDS011;6383;50.830;7.210;2022-08-01T07:37:00;8.40;;;6.88;;
12635;SDS011;6383;50.830;7.210;2022-08-01T07:39:33;7.80;;;7.13;;
12635;SDS011;6383;50.830;7.210;2022-08-01T07:42:03;7.88;;;7.07;;
12635;SDS011;6383;50.830;7.210;2022-08-01T07:44:42;8.98;;;6.65;;
12635;SDS011;6383;50.830;7.210;2022-08-01T07:47:15;9.05;;;7.47;;
12635;SDS011;6383;50.830;7.210;2022-08-01T07:50:00;10.10;;;7.18;;
12635;SDS011;6383;50.830;7.210;2022-08-01T07:52:44;10.27;;;8.18;;
12635;SDS011;6383;50.830;7.210;2022-08-01T07:55:48;9.90;;;7.72;;
12635;SDS011;6383;50.830;7.210;2022-08-01T07:58:33;8.60;;;6.47;;
12635;SDS011;6383;50.830;7.210;2022-08-01T08:01:12;7.68;;;7.07;;
12635;SDS011;6383;50.830;7.210;2022-08-01T08:03:47;9.80;;;6.45;;
12635;SDS011;6383;50.830;7.210;2022-08-01T08:06:38;7.32;;;6.57;;
12635;SDS011;6383;50.830;7.210;2022-08-01T08:09:18;7.75;;;6.50;;
12635;SDS011;6383;50.830;7.210;2022-08-01T08:11:53;6.82;;;6.07;;
12635;SDS011;6383;50.830;7.210;2022-08-01T08:14:28;6.18;;;5.28;;
12635;SDS011;6383;50.830;7.210;2022-08-01T08:17:04;9.43;;;6.13;;
12635;SDS011;6383;50.830;7.210;2022-08-01T08:19:33;5.95;;;5.45;;
12635;SDS011;6383;50.830;7.210;2022-08-01T08:22:11;9.48;;;5.97;;
12635;SDS011;6383;50.830;7.210;2022-08-01T08:24:46;8.00;;;6.10;;
12635;SDS011;6383;50.830;7.210;2022-08-01T08:27:23;6.22;;;5.43;;
12635;SDS011;6383;50.830;7.210;2022-08-01T08:29:52;8.55;;;5.80;;
12635;SDS011;6383;50.830;7.210;2022-08-01T08:32:26;6.00;;;5.40;;
12635;SDS011;6383;50.830;7.210;2022-08-01T08:34:58;7.45;;;6.03;;
12635;SDS011;6383;50.830;7.210;2022-08-01T08:37:30;6.00;;;5.45;;
12635;SDS011;6383;50.830;7.210;2022-08-01T08:40:00;8.93;;;6.35;;
12635;SDS011;6383;50.830;7.210;2022-08-01T08:42:29;6.90;;;5.85;;
12635;SDS011;6383;50.830;7.210;2022-08-01T08:45:10;12.20;;;6.38;;
12635;SDS011;6383;50.830;7.210;2022-08-01T08:47:41;6.72;;;5.28;;
12635;SDS011;6383;50.830;7.210;2022-08-01T08:50:22;9.07;;;5.60;;
12635;SDS011;6383;50.830;7.210;2022-08-01T08:53:13;7.68;;;5.78;;
12635;SDS011;6383;50.830;7.210;2022-08-01T08:56:02;6.10;;;5.50;;
12635;SDS011;6383;50.830;7.210;2022-08-01T08:58:33;7.43;;;5.50;;
12635;SDS011;6383;50.830;7.210;2022-08-01T09:01:04;9.13;;;6.00;;
12635;SDS011;6383;50.830;7.210;2022-08-01T09:03:35;7.65;;;5.60;;
12635;SDS011;6383;50.830;7.210;2022-08-01T09:06:03;11.80;;;5.97;;
12635;SDS011;6383;50.830;7.210;2022-08-01T09:08:33;9.63;;;6.05;;
12635;SDS011;6383;50.830;7.210;2022-08-01T09:11:03;7.00;;;6.32;;
12635;SDS011;6383;50.830;7.210;2022-08-01T09:13:32;8.52;;;6.05;;
12635;SDS011;6383;50.830;7.210;2022-08-01T09:16:01;8.88;;;6.50;;
12635;SDS011;6383;50.830;7.210;2022-08-01T09:18:35;9.23;;;6.10;;
12635;SDS011;6383;50.830;7.210;2022-08-01T09:23:38;11.40;;;6.30;;
12635;SDS011;6383;50.830;7.210;2022-08-01T09:26:10;7.32;;;6.65;;
12635;SDS011;6383;50.830;7.210;2022-08-01T09:28:40;7.35;;;6.28;;
12635;SDS011;6383;50.830;7.210;2022-08-01T09:31:11;8.30;;;6.35;;
12635;SDS011;6383;50.830;7.210;2022-08-01T09:33:50;6.72;;;6.05;;
12635;SDS011;6383;50.830;7.210;2022-08-01T09:36:21;8.70;;;6.15;;
12635;SDS011;6383;50.830;7.210;2022-08-01T09:38:52;9.05;;;5.90;;
12635;SDS011;6383;50.830;7.210;2022-08-01T09:41:28;9.35;;;6.13;;
12635;SDS011;6383;50.830;7.210;2022-08-01T09:43:58;6.45;;;5.80;;
12635;SDS011;6383;50.830;7.210;2022-08-01T09:46:27;5.70;;;5.20;;
12635;SDS011;6383;50.830;7.210;2022-08-01T09:48:59;6.10;;;5.57;;
12635;SDS011;6383;50.830;7.210;2022-08-01T09:51:30;7.22;;;6.00;;
12635;SDS011;6383;50.830;7.210;2022-08-01T09:54:01;7.80;;;5.72;;
12635;SDS011;6383;50.830;7.210;2022-08-01T09:56:37;8.63;;;5.70;;
12635;SDS011;6383;50.830;7.210;2022-08-01T09:59:06;9.05;;;6.47;;
12635;SDS011;6383;50.830;7.210;2022-08-01T10:01:43;7.85;;;7.05;;
12635;SDS011;6383;50.830;7.210;2022-08-01T10:04:16;7.95;;;6.00;;
12635;SDS011;6383;50.830;7.210;2022-08-01T10:06:47;6.22;;;5.55;;
12635;SDS011;6383;50.830;7.210;2022-08-01T10:09:26;8.18;;;6.20;;
12635;SDS011;6383;50.830;7.210;2022-08-01T10:11:56;7.35;;;5.78;;
12635;SDS011;6383;50.830;7.210;2022-08-01T10:14:27;6.22;;;5.63;;
12635;SDS011;6383;50.830;7.210;2022-08-01T10:16:59;6.72;;;5.15;;
12635;SDS011;6383;50.830;7.210;2022-08-01T10:19:30;5.45;;;4.93;;
12635;SDS011;6383;50.830;7.210;2022-08-01T10:22:00;5.80;;;5.07;;
12635;SDS011;6383;50.830;7.210;2022-08-01T10:24:29;5.68;;;5.05;;
12635;SDS011;6383;50.830;7.210;2022-08-01T10:27:01;5.55;;;5.03;;
12635;SDS011;6383;50.830;7.210;2022-08-01T10:29:34;5.53;;;5.13;;
12635;SDS011;6383;50.830;7.210;2022-08-01T10:32:04;6.30;;;4.53;;
12635;SDS011;6383;50.830;7.210;2022-08-01T10:34:37;6.00;;;5.13;;
12635;SDS011;6383;50.830;7.210;2022-08-01T10:37:06;8.02;;;4.75;;
12635;SDS011;6383;50.830;7.210;2022-08-01T10:39:35;6.18;;;4.43;;
12635;SDS011;6383;50.830;7.210;2022-08-01T10:42:04;8.55;;;5.65;;
12635;SDS011;6383;50.830;7.210;2022-08-01T10:44:34;5.95;;;5.28;;
12635;SDS011;6383;50.830;7.210;2022-08-01T10:47:05;5.03;;;4.50;;
12635;SDS011;6383;50.830;7.210;2022-08-01T10:49:39;4.50;;;3.97;;
12635;SDS011;6383;50.830;7.210;2022-08-01T10:52:15;4.18;;;3.75;;
12635;SDS011;6383;50.830;7.210;2022-08-01T10:54:44;5.65;;;4.60;;
12635;SDS011;6383;50.830;7.210;2022-08-01T10:57:14;4.85;;;4.32;;
12635;SDS011;6383;50.830;7.210;2022-08-01T10:59:48;5.82;;;4.63;;
12635;SDS011;6383;50.830;7.210;2022-08-01T11:02:25;4.07;;;3.75;;
12635;SDS011;6383;50.830;7.210;2022-08-01T11:04:57;7.47;;;4.63;;
12635;SDS011;6383;50.830;7.210;2022-08-01T11:07:36;4.78;;;3.78;;
12635;SDS011;6383;50.830;7.210;2022-08-01T11:10:16;6.70;;;3.83;;
12635;SDS011;6383;50.830;7.210;2022-08-01T11:12:50;3.72;;;3.40;;
12635;SDS011;6383;50.830;7.210;2022-08-01T11:15:23;3.60;;;2.97;;
12635;SDS011;6383;50.830;7.210;2022-08-01T11:17:53;4.28;;;3.45;;
12635;SDS011;6383;50.830;7.210;2022-08-01T11:20:25;4.05;;;3.75;;
12635;SDS011;6383;50.830;7.210;2022-08-01T11:26:06;4.55;;;3.50;;
12635;SDS011;6383;50.830;7.210;2022-08-01T11:28:39;4.72;;;3.53;;
12635;SDS011;6383;50.830;7.210;2022-08-01T11:31:26;3.15;;;2.60;;
12635;SDS011;6383;50.830;7.210;2022-08-01T11:33:58;3.85;;;3.55;;
12635;SDS011;6383;50.830;7.210;2022-08-01T11:36:29;3.53;;;3.22;;
12635;SDS011;6383;50.830;7.210;2022-08-01T11:39:12;4.80;;;3.47;;
12635;SDS011;6383;50.830;7.210;2022-08-01T11:41:43;3.70;;;3.40;;
12635;SDS011;6383;50.830;7.210;2022-08-01T11:44:21;3.65;;;3.28;;
12635;SDS011;6383;50.830;7.210;2022-08-01T11:46:56;3.53;;;3.17;;
12635;SDS011;6383;50.830;7.210;2022-08-01T11:49:29;3.92;;;3.65;;
12635;SDS011;6383;50.830;7.210;2022-08-01T11:52:04;4.22;;;3.78;;
12635;SDS011;6383;50.830;7.210;2022-08-01T11:54:35;3.47;;;3.28;;
12635;SDS011;6383;50.830;7.210;2022-08-01T11:57:05;3.60;;;3.40;;
12635;SDS011;6383;50.830;7.210;2022-08-01T11:59:38;3.35;;;3.05;;
12635;SDS011;6383;50.830;7.210;2022-08-01T12:04:49;3.42;;;3.00;;
12635;SDS011;6383;50.830;7.210;2022-08-01T12:07:22;5.00;;;3.67;;
12635;SDS011;6383;50.830;7.210;2022-08-01T12:09:56;3.35;;;3.05;;
12635;SDS011;6383;50.830;7.210;2022-08-01T12:12:28;3.88;;;3.13;;
12635;SDS011;6383;50.830;7.210;2022-08-01T12:14:59;3.65;;;2.65;;
12635;SDS011;6383;50.830;7.210;2022-08-01T12:17:31;2.95;;;2.75;;
12635;SDS011;6383;50.830;7.210;2022-08-01T12:20:02;3.35;;;3.05;;
12635;SDS011;6383;50.830;7.210;2022-08-01T12:22:35;3.22;;;3.03;;
12635;SDS011;6383;50.830;7.210;2022-08-01T12:25:05;3.38;;;3.00;;
12635;SDS011;6383;50.830;7.210;2022-08-01T12:27:34;3.17;;;2.92;;
12635;SDS011;6383;50.830;7.210;2022-08-01T12:30:05;4.45;;;3.28;;
12635;SDS011;6383;50.830;7.210;2022-08-01T12:32:35;3.65;;;3.35;;
12635;SDS011;6383;50.830;7.210;2022-08-01T12:35:05;3.95;;;3.42;;
12635;SDS011;6383;50.830;7.210;2022-08-01T12:37:36;4.13;;;3.25;;
12635;SDS011;6383;50.830;7.210;2022-08-01T12:40:11;3.35;;;3.13;;
12635;SDS011;6383;50.830;7.210;2022-08-01T12:42:43;4.82;;;4.43;;
12635;SDS011;6383;50.830;7.210;2022-08-01T12:45:13;8.10;;;3.92;;
12635;SDS011;6383;50.830;7.210;2022-08-01T12:47:44;3.17;;;2.70;;
12635;SDS011;6383;50.830;7.210;2022-08-01T12:50:15;3.53;;;3.05;;
12635;SDS011;6383;50.830;7.210;2022-08-01T12:52:48;3.80;;;3.53;;
12635;SDS011;6383;50.830;7.210;2022-08-01T12:55:19;4.18;;;3.30;;
12635;SDS011;6383;50.830;7.210;2022-08-01T12:57:50;3.80;;;3.45;;
12635;SDS011;6383;50.830;7.210;2022-08-01T13:00:32;5.22;;;4.22;;
12635;SDS011;6383;50.830;7.210;2022-08-01T13:03:04;4.13;;;3.65;;
12635;SDS011;6383;50.830;7.210;2022-08-01T13:05:41;3.88;;;3.05;;
12635;SDS011;6383;50.830;7.210;2022-08-01T13:08:14;3.47;;;3.20;;
12635;SDS011;6383;50.830;7.210;2022-08-01T13:10:45;5.15;;;2.70;;
12635;SDS011;6383;50.830;7.210;2022-08-01T13:13:16;4.97;;;2.63;;
12635;SDS011;6383;50.830;7.210;2022-08-01T13:15:47;2.85;;;2.55;;
12635;SDS011;6383;50.830;7.210;2022-08-01T13:18:32;2.67;;;2.47;;
12635;SDS011;6383;50.830;7.210;2022-08-01T13:21:09;4.40;;;4.10;;
12635;SDS011;6383;50.830;7.210;2022-08-01T13:23:41;5.65;;;5.15;;
12635;SDS011;6383;50.830;7.210;2022-08-01T13:26:11;2.83;;;2.60;;
12635;SDS011;6383;50.830;7.210;2022-08-01T13:28:40;7.82;;;2.85;;
12635;SDS011;6383;50.830;7.210;2022-08-01T13:31:09;6.95;;;6.35;;
12635;SDS011;6383;50.830;7.210;2022-08-01T13:33:40;3.20;;;2.83;;
12635;SDS011;6383;50.830;7.210;2022-08-01T13:36:11;2.83;;;2.35;;
12635;SDS011;6383;50.830;7.210;2022-08-01T13:38:42;5.55;;;2.42;;
12635;SDS011;6383;50.830;7.210;2022-08-01T13:41:28;3.20;;;2.45;;
12635;SDS011;6383;50.830;7.210;2022-08-01T13:44:01;4.20;;;3.90;;
12635;SDS011;6383;50.830;7.210;2022-08-01T13:46:31;5.80;;;2.47;;
12635;SDS011;6383;50.830;7.210;2022-08-01T13:49:00;2.53;;;2.33;;
12635;SDS011;6383;50.830;7.210;2022-08-01T13:51:29;2.95;;;2.75;;
12635;SDS011;6383;50.830;7.210;2022-08-01T13:54:00;2.22;;;2.10;;
12635;SDS011;6383;50.830;7.210;2022-08-01T13:56:29;6.38;;;2.53;;
12635;SDS011;6383;50.830;7.210;2022-08-01T13:58:58;2.45;;;2.20;;
12635;SDS011;6383;50.830;7.210;2022-08-01T14:01:27;3.72;;;2.25;;
12635;SDS011;6383;50.830;7.210;2022-08-01T14:03:56;4.75;;;2.10;;
12635;SDS011;6383;50.830;7.210;2022-08-01T14:06:26;2.63;;;2.20;;
12635;SDS011;6383;50.830;7.210;2022-08-01T14:08:55;2.03;;;1.90;;
12635;SDS011;6383;50.830;7.210;2022-08-01T14:11:26;1.90;;;1.80;;
12635;SDS011;6383;50.830;7.210;2022-08-01T14:13:55;1.80;;;1.70;;
12635;SDS011;6383;50.830;7.210;2022-08-01T14:16:24;3.65;;;1.98;;
12635;SDS011;6383;50.830;7.210;2022-08-01T14:18:53;4.85;;;1.83;;
12635;SDS011;6383;50.830;7.210;2022-08-01T14:21:23;1.88;;;1.63;;
12635;SDS011;6383;50.830;7.210;2022-08-01T14:23:52;1.38;;;1.30;;
12635;SDS011;6383;50.830;7.210;2022-08-01T14:26:21;1.98;;;1.73;;
12635;SDS011;6383;50.830;7.210;2022-08-01T14:28:54;3.00;;;1.50;;
12635;SDS011;6383;50.830;7.210;2022-08-01T14:31:23;4.00;;;1.58;;
12635;SDS011;6383;50.830;7.210;2022-08-01T14:33:52;2.13;;;1.60;;
12635;SDS011;6383;50.830;7.210;2022-08-01T14:36:21;3.78;;;1.50;;
12635;SDS011;6383;50.830;7.210;2022-08-01T14:38:53;1.83;;;1.58;;
12635;SDS011;6383;50.830;7.210;2022-08-01T14:41:22;3.78;;;2.05;;
12635;SDS011;6383;50.830;7.210;2022-08-01T14:43:53;2.05;;;1.50;;
12635;SDS011;6383;50.830;7.210;2022-08-01T14:46:22;2.17;;;1.70;;
12635;SDS011;6383;50.830;7.210;2022-08-01T14:48:51;2.30;;;1.50;;
12635;SDS011;6383;50.830;7.210;2022-08-01T14:51:20;1.00;;;1.00;;
12635;SDS011;6383;50.830;7.210;2022-08-01T14:53:49;1.40;;;1.30;;
12635;SDS011;6383;50.830;7.210;2022-08-01T14:56:19;1.60;;;1.50;;
12635;SDS011;6383;50.830;7.210;2022-08-01T14:58:48;1.45;;;1.35;;
12635;SDS011;6383;50.830;7.210;2022-08-01T15:01:19;1.55;;;1.35;;
12635;SDS011;6383;50.830;7.210;2022-08-01T15:03:48;3.53;;;1.63;;
12635;SDS011;6383;50.830;7.210;2022-08-01T15:06:18;3.22;;;1.02;;
12635;SDS011;6383;50.830;7.210;2022-08-01T15:08:47;1.15;;;0.90;;
12635;SDS011;6383;50.830;7.210;2022-08-01T15:11:16;4.13;;;1.20;;
12635;SDS011;6383;50.830;7.210;2022-08-01T15:13:45;2.03;;;1.27;;
12635;SDS011;6383;50.830;7.210;2022-08-01T15:16:35;1.25;;;1.15;;
12635;SDS011;6383;50.830;7.210;2022-08-01T15:19:05;4.18;;;1.40;;
12635;SDS011;6383;50.830;7.210;2022-08-01T15:21:34;3.83;;;1.23;;
12635;SDS011;6383;50.830;7.210;2022-08-01T15:24:03;1.27;;;1.17;;
12635;SDS011;6383;50.830;7.210;2022-08-01T15:26:33;1.30;;;1.20;;
12635;SDS011;6383;50.830;7.210;2022-08-01T15:29:02;3.08;;;1.30;;
12635;SDS011;6383;50.830;7.210;2022-08-01T15:31:31;2.13;;;1.70;;
12635;SDS011;6383;50.830;7.210;2022-08-01T15:34:02;3.30;;;1.00;;
12635;SDS011;6383;50.830;7.210;2022-08-01T15:36:31;1.10;;;1.08;;
12635;SDS011;6383;50.830;7.210;2022-08-01T15:39:00;1.23;;;1.00;;
12635;SDS011;6383;50.830;7.210;2022-08-01T15:41:29;0.85;;;0.85;;